createdAt,value
2019-05-06T00:00:59.546Z,67.20
2019-05-06T00:03:29.864Z,67.20
2019-05-06T00:06:00.883Z,67.10
2019-05-06T00:08:34.563Z,67.50
2019-05-06T00:11:06.109Z,67.60
2019-05-06T00:13:38.481Z,67.30
2019-05-06T00:16:09.672Z,67.20
2019-05-06T00:18:41.465Z,67.20
2019-05-06T00:21:14.823Z,67.50
2019-05-06T00:23:54.701Z,67.10
2019-05-06T00:26:44.823Z,66.40
2019-05-06T00:29:18.185Z,66.50
2019-05-06T00:31:50.426Z,66.50
2019-05-06T00:34:21.829Z,66.60
2019-05-06T00:36:54.482Z,66.70
2019-05-06T00:39:44.638Z,66.80
2019-05-06T00:42:29.751Z,67.00
2019-05-06T00:45:04.242Z,67.00
2019-05-06T00:47:35.261Z,67.10
2019-05-06T00:50:06.542Z,67.00
2019-05-06T00:52:38.347Z,67.10
2019-05-06T00:55:09.434Z,66.60
2019-05-06T00:57:45.542Z,66.40
2019-05-06T01:00:24.443Z,66.40
2019-05-06T01:02:55.255Z,66.30
2019-05-06T01:05:26.392Z,66.40
2019-05-06T01:07:57.887Z,66.10
2019-05-06T01:10:29.139Z,66.10
2019-05-06T01:13:06.966Z,66.20
2019-05-06T01:15:37.535Z,66.30
2019-05-06T01:18:09.374Z,66.70
2019-05-06T01:20:41.640Z,66.70
2019-05-06T01:23:14.241Z,66.90
2019-05-06T01:25:45.117Z,67.00
2019-05-06T01:28:18.615Z,67.90
2019-05-06T01:30:50.131Z,67.20
2019-05-06T01:33:24.172Z,67.30
2019-05-06T01:35:55.008Z,67.40
2019-05-06T01:38:34.069Z,67.70
2019-05-06T01:41:24.546Z,67.40
2019-05-06T01:43:55.594Z,67.50
2019-05-06T01:46:28.375Z,67.00
2019-05-06T01:48:59.063Z,66.80
2019-05-06T01:51:29.633Z,66.70
2019-05-06T01:54:03.597Z,66.50
2019-05-06T01:56:34.568Z,67.20
2019-05-06T01:59:06.595Z,67.30
2019-05-06T02:01:53.489Z,67.70
2019-05-06T02:04:13.822Z,67.90
2019-05-06T02:06:46.587Z,68.00
2019-05-06T02:09:18.344Z,68.00
2019-05-06T02:11:49.076Z,67.90
2019-05-06T02:14:21.379Z,67.80
2019-05-06T02:16:54.641Z,67.90
2019-05-06T02:19:25.581Z,67.80
2019-05-06T02:22:08.192Z,67.80
2019-05-06T02:24:50.037Z,67.80
2019-05-06T02:27:24.266Z,67.80
2019-05-06T02:30:20.761Z,67.60
2019-05-06T02:33:09.791Z,67.70
2019-05-06T02:36:01.301Z,67.70
2019-05-06T02:38:45.948Z,67.80
2019-05-06T02:41:13.379Z,67.70
2019-05-06T02:43:43.659Z,67.50
2019-05-06T02:46:15.654Z,67.40
2019-05-06T02:49:04.236Z,67.30
2019-05-06T02:51:35.429Z,67.40
2019-05-06T02:54:06.653Z,67.40
2019-05-06T02:56:37.815Z,67.40
2019-05-06T02:59:13.035Z,67.60
2019-05-06T03:01:44.047Z,67.50
2019-05-06T03:04:16.681Z,67.60
2019-05-06T03:06:47.186Z,67.50
2019-05-06T03:09:23.279Z,67.50
2019-05-06T03:11:54.301Z,67.50
2019-05-06T03:14:25.034Z,67.40
2019-05-06T03:16:56.267Z,67.60
2019-05-06T03:19:29.010Z,67.50
2019-05-06T03:22:27.673Z,67.70
2019-05-06T03:25:13.356Z,67.80
2019-05-06T03:27:46.895Z,67.80
2019-05-06T03:30:17.383Z,67.90
2019-05-06T03:33:28.216Z,67.90
2019-05-06T03:35:36.465Z,67.90
2019-05-06T03:37:55.184Z,68.10
2019-05-06T03:40:28.301Z,68.10
2019-05-06T03:43:02.624Z,68.00
2019-05-06T03:45:54.681Z,68.20
2019-05-06T03:48:34.392Z,68.20
2019-05-06T03:51:07.004Z,68.10
2019-05-06T03:53:37.665Z,69.20
2019-05-06T03:56:14.341Z,68.40
2019-05-06T03:58:43.716Z,68.30
2019-05-06T04:01:24.098Z,68.20
2019-05-06T04:03:57.145Z,68.10
2019-05-06T04:06:28.697Z,67.90
2019-05-06T04:09:04.627Z,68.10
2019-05-06T04:11:36.730Z,68.40
2019-05-06T04:14:08.057Z,68.40
2019-05-06T04:16:58.138Z,68.70
2019-05-06T04:19:35.162Z,68.50
2019-05-06T04:22:38.942Z,68.60
2019-05-06T04:25:34.004Z,68.70
2019-05-06T04:28:17.599Z,68.80
2019-05-06T04:30:48.405Z,69.20
2019-05-06T04:33:19.241Z,69.40
2019-05-06T04:35:54.079Z,69.40
2019-05-06T04:38:24.938Z,69.40
2019-05-06T04:40:55.616Z,69.10
2019-05-06T04:43:28.271Z,69.50
2019-05-06T04:46:03.227Z,69.40
2019-05-06T04:48:47.480Z,69.30
2019-05-06T04:51:24.638Z,69.40
2019-05-06T04:53:54.789Z,69.40
2019-05-06T04:56:33.151Z,69.50
2019-05-06T04:59:05.782Z,69.40
2019-05-06T05:01:36.621Z,69.50
2019-05-06T05:04:22.841Z,69.80
2019-05-06T05:06:43.073Z,69.90
2019-05-06T05:09:16.594Z,69.80
2019-05-06T05:11:53.931Z,69.90
2019-05-06T05:14:51.787Z,69.80
2019-05-06T05:17:45.608Z,69.50
2019-05-06T05:20:17.749Z,69.60
2019-05-06T05:22:53.610Z,69.50
2019-05-06T05:25:24.438Z,69.70
2019-05-06T05:27:56.110Z,69.60
2019-05-06T05:30:28.851Z,69.70
2019-05-06T05:33:02.625Z,69.70
2019-05-06T05:35:35.240Z,69.60
2019-05-06T05:38:07.218Z,69.30
2019-05-06T05:40:38.694Z,69.50
2019-05-06T05:43:39.375Z,69.60
2019-05-06T05:46:12.627Z,69.30
2019-05-06T05:49:12.763Z,68.90
2019-05-06T05:51:44.485Z,69.20
2019-05-06T05:54:17.584Z,69.80
2019-05-06T05:56:49.757Z,69.70
2019-05-06T05:59:23.396Z,69.30
2019-05-06T06:01:54.479Z,68.90
2019-05-06T06:04:26.239Z,68.80
2019-05-06T06:06:56.792Z,69.00
2019-05-06T06:09:32.768Z,69.20
2019-05-06T06:12:06.762Z,69.40
2019-05-06T06:14:57.634Z,69.10
2019-05-06T06:17:52.923Z,69.50
2019-05-06T06:20:42.396Z,68.80
2019-05-06T06:23:22.956Z,68.40
2019-05-06T06:25:54.145Z,69.20
2019-05-06T06:28:25.421Z,68.80
2019-05-06T06:31:19.204Z,69.20
2019-05-06T06:33:53.093Z,69.60
2019-05-06T06:36:43.962Z,69.70
2019-05-06T06:39:22.895Z,68.60
2019-05-06T06:41:54.462Z,68.90
2019-05-06T06:44:28.794Z,68.70
2019-05-06T06:47:01.955Z,68.90
2019-05-06T06:49:33.729Z,69.00
2019-05-06T06:52:10.900Z,68.80
2019-05-06T06:54:40.008Z,68.10
2019-05-06T06:57:22.947Z,68.20
2019-05-06T07:00:12.479Z,68.10
2019-05-06T07:02:59.169Z,67.10
2019-05-06T07:05:38.546Z,66.80
2019-05-06T07:08:09.411Z,66.80
2019-05-06T07:10:44.391Z,66.70
2019-05-06T07:13:15.882Z,66.90
2019-05-06T07:15:46.766Z,66.50
2019-05-06T07:18:18.577Z,66.50
2019-05-06T07:21:04.844Z,66.10
2019-05-06T07:23:36.337Z,65.90
2019-05-06T07:26:07.361Z,65.20
2019-05-06T07:28:38.606Z,65.00
2019-05-06T07:31:21.158Z,64.70
2019-05-06T07:33:43.541Z,63.30
2019-05-06T07:36:15.611Z,62.60
2019-05-06T07:38:52.994Z,62.80
2019-05-06T07:41:32.499Z,62.60
2019-05-06T07:44:25.796Z,62.80
2019-05-06T07:47:07.219Z,62.60
2019-05-06T07:49:37.612Z,62.10
2019-05-06T07:55:49.502Z,61.70
2019-05-06T07:58:22.637Z,59.70
2019-05-06T08:00:55.299Z,59.80
2019-05-06T08:03:26.854Z,58.70
2019-05-06T08:05:58.829Z,58.30
2019-05-06T08:08:39.456Z,59.70
2019-05-06T08:11:12.385Z,59.80
2019-05-06T08:13:49.039Z,59.40
2019-05-06T08:16:32.139Z,58.10
2019-05-06T08:19:05.549Z,56.10
2019-05-06T08:21:42.799Z,55.80
2019-05-06T08:24:17.708Z,55.40
2019-05-06T08:26:52.087Z,56.40
2019-05-06T08:29:30.323Z,56.30
2019-05-06T08:32:05.973Z,55.80
2019-05-06T08:34:42.138Z,56.50
2019-05-06T08:37:32.271Z,55.00
2019-05-06T08:40:04.261Z,54.70
2019-05-06T08:42:36.953Z,56.10
2019-05-06T08:45:12.841Z,55.10
2019-05-06T08:51:33.183Z,56.70
2019-05-06T08:54:10.505Z,57.00
2019-05-06T08:56:46.647Z,54.60
2019-05-06T08:59:24.019Z,56.10
2019-05-06T09:01:58.214Z,55.10
2019-05-06T09:04:32.103Z,55.10
2019-05-06T09:07:05.121Z,55.00
2019-05-06T09:09:42.096Z,55.40
2019-05-06T09:19:08.737Z,54.00
2019-05-06T09:21:48.402Z,55.40
2019-05-06T09:24:23.073Z,53.50
2019-05-06T09:33:35.783Z,52.30
2019-05-06T09:36:09.289Z,52.70
2019-05-06T09:38:42.452Z,52.00
2019-05-06T09:41:15.135Z,50.30
2019-05-06T09:43:56.039Z,48.40
2019-05-06T09:46:28.311Z,47.60
2019-05-06T09:49:12.632Z,46.60
2019-05-06T09:51:43.607Z,49.40
2019-05-06T10:00:52.518Z,51.40
2019-05-06T10:03:26.238Z,51.90
2019-05-06T10:05:57.266Z,52.30
2019-05-06T10:08:28.670Z,51.00
2019-05-06T10:11:03.699Z,50.80
2019-05-06T10:17:04.945Z,50.70
2019-05-06T10:19:36.243Z,50.50
2019-05-06T10:22:08.164Z,50.70
2019-05-06T10:24:38.914Z,50.00
2019-05-06T10:27:22.692Z,49.60
2019-05-06T10:30:03.279Z,47.70
2019-05-06T10:32:52.874Z,47.20
2019-05-06T10:35:42.696Z,46.40
2019-05-06T10:38:52.913Z,46.40
2019-05-06T10:41:25.745Z,47.20
2019-05-06T10:47:33.093Z,46.40
2019-05-06T10:50:05.444Z,46.60
2019-05-06T10:58:49.335Z,45.60
2019-05-06T11:01:25.877Z,45.80
2019-05-06T11:03:59.219Z,42.40
2019-05-06T11:06:36.521Z,43.20
2019-05-06T11:09:08.549Z,42.70
2019-05-06T11:14:39.767Z,44.90
2019-05-06T11:22:54.208Z,42.30
2019-05-06T11:25:26.751Z,42.80
2019-05-06T11:31:43.390Z,41.50
2019-05-06T11:40:56.235Z,43.40
2019-05-06T11:43:27.651Z,44.00
2019-05-06T11:46:05.599Z,43.90
2019-05-06T11:48:43.183Z,43.40
2019-05-06T11:51:16.313Z,43.50
2019-05-06T11:53:54.129Z,43.20
2019-05-06T11:56:32.543Z,44.20
2019-05-06T11:59:06.685Z,43.60
2019-05-06T12:01:43.443Z,41.50
2019-05-06T12:07:24.578Z,40.70
2019-05-06T12:09:58.564Z,41.50
2019-05-06T12:12:30.846Z,40.30
2019-05-06T12:15:06.696Z,41.20
2019-05-06T12:17:37.119Z,40.30
2019-05-06T12:20:07.954Z,39.80
2019-05-06T12:22:44.082Z,42.10
2019-05-06T12:25:27.490Z,39.70
2019-05-06T12:28:02.872Z,40.60
2019-05-06T12:30:33.529Z,39.60
2019-05-06T12:33:23.410Z,38.40
2019-05-06T12:35:58.605Z,39.00
2019-05-06T12:38:33.827Z,40.80
2019-05-06T12:41:08.541Z,38.80
2019-05-06T12:43:49.601Z,38.80
2019-05-06T12:46:24.721Z,40.20
2019-05-06T12:52:19.026Z,42.00
2019-05-06T12:54:53.859Z,40.90
2019-05-06T13:03:35.578Z,40.30
2019-05-06T13:06:08.948Z,39.90
2019-05-06T13:08:56.052Z,39.90
2019-05-06T13:11:13.802Z,39.50
2019-05-06T13:13:56.781Z,40.40
2019-05-06T13:16:19.159Z,39.20
2019-05-06T13:18:52.567Z,40.40
2019-05-06T13:21:24.652Z,39.10
2019-05-06T13:30:50.143Z,40.60
2019-05-06T13:37:09.289Z,38.60
2019-05-06T13:39:43.179Z,40.10
2019-05-06T13:42:14.032Z,38.90
2019-05-06T13:44:45.717Z,39.10
2019-05-06T13:47:22.940Z,40.20
2019-05-06T13:49:56.910Z,38.80
2019-05-06T13:52:35.823Z,38.90
2019-05-06T13:55:07.632Z,39.60
2019-05-06T13:57:39.687Z,40.50
2019-05-06T14:06:28.962Z,38.70
2019-05-06T14:09:02.546Z,38.20
2019-05-06T14:14:59.690Z,38.60
2019-05-06T14:17:33.668Z,39.20
2019-05-06T14:20:08.734Z,40.90
2019-05-06T14:22:43.777Z,39.80
2019-05-06T14:25:28.887Z,37.90
2019-05-06T14:31:27.443Z,39.50
2019-05-06T14:33:58.881Z,39.20
2019-05-06T14:36:32.523Z,39.40
2019-05-06T14:39:08.916Z,39.20
2019-05-06T14:41:44.533Z,38.90
2019-05-06T14:50:48.665Z,36.10
2019-05-06T14:59:36.810Z,36.30
2019-05-06T15:02:09.289Z,38.80
2019-05-06T15:04:43.471Z,38.10
2019-05-06T15:14:13.053Z,36.10
2019-05-06T15:16:43.719Z,36.40
2019-05-06T15:25:32.542Z,35.70
2019-05-06T15:35:06.298Z,34.60
2019-05-06T15:43:33.323Z,35.70
2019-05-06T15:46:03.517Z,36.30
2019-05-06T15:48:34.463Z,37.20
2019-05-06T15:51:04.927Z,38.00
2019-05-06T15:57:18.049Z,39.00
2019-05-06T15:59:48.915Z,37.20
2019-05-06T16:05:34.637Z,36.40
2019-05-06T16:08:08.843Z,36.40
2019-05-06T16:16:25.296Z,36.90
2019-05-06T16:18:55.227Z,38.20
2019-05-06T16:27:12.271Z,38.50
2019-05-06T16:29:45.324Z,40.10
2019-05-06T16:32:15.951Z,40.50
2019-05-06T16:40:45.405Z,39.80
2019-05-06T16:43:17.386Z,42.10
2019-05-06T16:51:30.116Z,40.00
2019-05-06T16:54:03.688Z,39.70
2019-05-06T17:02:57.946Z,39.00
2019-05-06T17:05:57.562Z,38.10
2019-05-06T17:08:36.487Z,38.50
2019-05-06T17:14:33.508Z,40.90
2019-05-06T17:17:03.986Z,38.00
2019-05-06T17:19:34.138Z,36.40
2019-05-06T17:22:04.458Z,36.40
2019-05-06T17:24:42.542Z,36.80
2019-05-06T17:34:03.913Z,38.50
2019-05-06T17:36:36.863Z,38.00
2019-05-06T17:39:12.166Z,40.40
2019-05-06T17:45:58.524Z,41.00
2019-05-06T17:48:30.170Z,39.50
2019-05-06T17:51:28.949Z,40.50
2019-05-06T17:57:33.251Z,45.00
2019-05-06T18:06:42.223Z,49.70
2019-05-06T18:15:24.711Z,50.10
2019-05-06T18:18:02.192Z,50.50
2019-05-06T18:27:07.063Z,49.50
2019-05-06T18:33:25.916Z,49.00
2019-05-06T18:41:47.587Z,51.30
2019-05-06T18:47:53.142Z,52.50
2019-05-06T18:56:54.568Z,53.70
2019-05-06T19:06:02.402Z,55.40
2019-05-06T19:08:46.124Z,56.10
2019-05-06T19:18:05.675Z,57.00
2019-05-06T19:20:36.167Z,57.20
2019-05-06T19:26:12.795Z,58.00
2019-05-06T19:28:43.568Z,57.90
2019-05-06T19:37:57.034Z,57.00
2019-05-06T19:40:28.131Z,57.20
2019-05-06T19:55:53.085Z,54.60
2019-05-06T19:58:25.163Z,56.70
2019-05-06T20:07:36.648Z,56.40
2019-05-06T20:10:24.227Z,57.80
2019-05-06T20:16:05.990Z,58.80
2019-05-06T20:24:49.056Z,60.40
2019-05-06T20:30:25.565Z,61.20
2019-05-06T20:32:58.699Z,60.90
2019-05-06T20:39:12.610Z,60.10
2019-05-06T20:41:43.466Z,61.30
2019-05-06T20:44:14.811Z,61.30
2019-05-06T20:53:32.529Z,60.60
2019-05-06T20:56:04.038Z,60.70
2019-05-06T20:58:34.827Z,60.80
2019-05-06T21:01:05.348Z,60.90
2019-05-06T21:03:35.563Z,61.30
2019-05-06T21:06:08.296Z,61.40
2019-05-06T21:15:15.679Z,62.90
2019-05-06T21:24:15.606Z,63.90
2019-05-06T21:26:46.589Z,63.50
2019-05-06T21:29:17.276Z,63.30
2019-05-06T21:31:48.518Z,64.20
2019-05-06T21:34:22.351Z,64.60
2019-05-06T21:36:53.338Z,64.80
2019-05-06T21:39:24.656Z,65.70
2019-05-06T21:48:05.062Z,65.10
2019-05-06T21:50:36.082Z,64.40
2019-05-06T21:53:06.886Z,63.60
2019-05-06T21:55:39.108Z,63.70
2019-05-06T22:04:12.767Z,62.60
2019-05-06T22:06:45.536Z,62.30
2019-05-06T22:09:16.880Z,62.40
2019-05-06T22:14:59.499Z,62.30
2019-05-06T22:17:33.716Z,61.90
2019-05-06T22:27:02.885Z,62.10
2019-05-06T22:29:34.933Z,62.50
2019-05-06T22:32:08.220Z,62.00
2019-05-06T22:35:06.043Z,62.10
2019-05-06T22:37:46.514Z,63.10
2019-05-06T22:40:18.428Z,62.60
2019-05-06T22:42:49.723Z,62.60
2019-05-06T22:45:22.334Z,62.60
2019-05-06T22:47:54.296Z,62.50
2019-05-06T22:50:25.134Z,62.30
2019-05-06T22:52:57.777Z,62.50
2019-05-06T22:55:28.670Z,62.60
2019-05-06T22:57:59.646Z,62.70
2019-05-06T23:00:33.296Z,62.40
2019-05-06T23:03:09.047Z,62.90
2019-05-06T23:05:42.791Z,63.00
2019-05-06T23:08:15.682Z,63.00
2019-05-06T23:10:46.076Z,62.60
2019-05-06T23:13:19.137Z,62.50
2019-05-06T23:15:52.374Z,63.30
2019-05-06T23:18:24.366Z,62.50
2019-05-06T23:20:55.590Z,63.10
2019-05-06T23:23:27.198Z,63.70
2019-05-06T23:26:16.673Z,63.60
2019-05-06T23:28:48.335Z,63.70
2019-05-06T23:31:18.875Z,63.50
2019-05-06T23:33:49.150Z,63.70
2019-05-06T23:36:24.429Z,63.60
2019-05-06T23:39:32.196Z,63.40
2019-05-06T23:42:37.772Z,63.40
2019-05-06T23:45:43.843Z,63.70
2019-05-06T23:48:49.562Z,63.90
2019-05-06T23:51:55.673Z,63.90
2019-05-06T23:55:03.267Z,64.00
2019-05-06T23:57:32.552Z,63.70
